Airfield :
LOGIN :

Register | Disclaimer

   EN    FR    IT 

 










Legend :    VFR   Marginal VFR   IFR   Intensive IFR   Very Intensive IFR
Visi :
Ceiling :
>= 8 km
>= 3000ft
5 to 8 km
1000 to 3000 ft
1500m to 5 km
500 to 1000 ft
800 to 1500m
200 to 500 ft
< 800m
< 200 ft
Symbols :   Thunderstorms  Fog  Heavy snow  Heavy precipitations  Wind > 20 kt
SIGMETs :     Misc.  Thunderstorms  Icing  Turbulence  Mountain Waves  Volcanic Ashes






- Airport Elevation : 90 ft
- IATA code : NTE


LFRS - Nantes

CURRENT METAR :
  • 260030Z AUTO VRB02KT 7000 NSC 08/06 Q1016 TEMPO 0300 FG VV///

EXPIRED METARs :
  • 260000Z AUTO 06004KT 020V080 7000 NSC 08/06 Q1016 BECMG 3000 BR
  • 252330Z AUTO 09005KT 8000 NSC 07/06 Q1016 BECMG 3000 BR
  • 252300Z AUTO 08004KT 9000 NSC 07/06 Q1016 BECMG 3000 BR
  • 252230Z AUTO 07005KT 9000 NSC 08/07 Q1016 BECMG 3000 BR
  • 252200Z AUTO 05003KT 9000 NSC 08/07 Q1016 BECMG 3000 BR

TAF TAF LFRS
Valid from the 26 at 00:00 until the 27 at 06:00 UTC


252300Z 2600/2706 06005KT 8000 NSC
BECMG 2600/2602 3000 BR
TEMPO 2602/2609 0300 FG VV///
BECMG 2609/2612 CAVOK
PROB40
TEMPO 2609/2611 BKN004
FM262000 05006KT 9999 BKN035
ATIS : +33 2 40 05 12 74



MET'MAP, your aeronautical weather chart ! - Copyright ORBIFLY December 2007 - Disclaimer

ORBIFLY MET'MAP TEAM :

Programming & Development : Alexandra Zaïnal
Concept & original design : Baudouin d'Aumeries
Assistance for programming : Marc-Olivier Méhu
Technical & hardware support : Manuel Goepfert

Contact : metmap@orbifly.com




SOURCES & CREDITS :

   NOAA